createdAt,value
2018-08-10T00:00:39.366Z,7.50
2018-08-10T00:05:42.909Z,7.95
2018-08-10T00:10:46.139Z,6.55
2018-08-10T00:15:49.362Z,4.30
2018-08-10T00:20:52.579Z,1.47
2018-08-10T00:25:55.791Z,1.15
2018-08-10T00:30:58.990Z,0.97
2018-08-10T00:36:02.209Z,0.93
2018-08-10T00:41:05.455Z,0.80
2018-08-10T00:46:08.678Z,0.95
2018-08-10T00:51:11.871Z,1.10
2018-08-10T00:56:15.074Z,1.00
2018-08-10T01:01:18.296Z,1.00
2018-08-10T01:06:21.483Z,1.03
2018-08-10T01:11:24.711Z,1.22
2018-08-10T01:16:27.904Z,1.27
2018-08-10T01:21:31.074Z,1.45
2018-08-10T01:26:34.283Z,1.50
2018-08-10T01:31:37.480Z,1.50
2018-08-10T01:36:40.839Z,1.67
2018-08-10T01:41:44.049Z,1.82
2018-08-10T01:46:47.239Z,1.95
2018-08-10T01:51:50.451Z,2.00
2018-08-10T01:56:53.685Z,2.00
2018-08-10T02:01:56.851Z,2.30
2018-08-10T02:07:00.028Z,2.20
2018-08-10T02:12:03.224Z,2.55
2018-08-10T02:17:06.411Z,2.27
2018-08-10T02:22:09.923Z,2.20
2018-08-10T02:27:13.124Z,2.15
2018-08-10T02:32:16.292Z,1.98
2018-08-10T02:37:19.484Z,2.30
2018-08-10T02:42:22.677Z,2.70
2018-08-10T02:47:25.876Z,2.60
2018-08-10T02:52:29.082Z,2.62
2018-08-10T02:57:32.296Z,2.40
2018-08-10T03:02:35.521Z,2.53
2018-08-10T03:07:39.068Z,2.75
2018-08-10T03:12:42.308Z,2.42
2018-08-10T03:17:46.056Z,2.27
2018-08-10T03:22:49.267Z,1.80
2018-08-10T03:27:52.504Z,1.90
2018-08-10T03:32:55.718Z,1.92
2018-08-10T03:37:58.915Z,1.60
2018-08-10T03:43:02.127Z,1.50
2018-08-10T03:48:06.148Z,1.25
2018-08-10T03:53:09.340Z,1.53
2018-08-10T03:58:12.541Z,1.62
2018-08-10T04:03:15.770Z,1.80
2018-08-10T04:08:18.983Z,2.50
2018-08-10T04:13:22.182Z,2.37
2018-08-10T04:18:26.349Z,2.62
2018-08-10T04:23:29.758Z,2.53
2018-08-10T04:28:33.030Z,2.30
2018-08-10T04:33:36.269Z,2.20
2018-08-10T04:38:39.577Z,1.90
2018-08-10T04:44:13.435Z,2.50
2018-08-10T04:49:16.628Z,2.22
2018-08-10T04:54:19.989Z,2.13
2018-08-10T04:59:23.233Z,1.80
2018-08-10T05:04:26.435Z,2.20
2018-08-10T05:09:29.671Z,2.15
2018-08-10T05:14:32.899Z,1.90
2018-08-10T05:19:36.103Z,2.10
2018-08-10T05:24:39.311Z,2.50
2018-08-10T05:29:42.518Z,2.70
2018-08-10T05:34:45.752Z,2.80
2018-08-10T05:39:48.912Z,3.20
2018-08-10T05:44:52.119Z,3.60
2018-08-10T05:49:55.367Z,3.90
2018-08-10T05:54:58.539Z,3.90
2018-08-10T06:00:01.723Z,4.08
2018-08-10T06:05:05.235Z,3.50
2018-08-10T06:10:09.775Z,3.50
2018-08-10T06:15:12.971Z,3.22
2018-08-10T06:20:16.175Z,3.33
2018-08-10T06:25:19.409Z,3.12
2018-08-10T06:30:22.636Z,3.15
2018-08-10T06:35:25.835Z,2.92
2018-08-10T06:40:29.038Z,2.73
2018-08-10T06:45:32.344Z,2.70
2018-08-10T06:50:35.559Z,2.63
2018-08-10T06:55:38.783Z,2.67
2018-08-10T07:00:42.002Z,2.20
2018-08-10T07:05:45.180Z,2.40
2018-08-10T07:10:48.430Z,2.70
2018-08-10T07:15:51.661Z,2.35
2018-08-10T07:20:54.903Z,2.72
2018-08-10T07:25:58.106Z,2.67
2018-08-10T07:31:01.770Z,2.62
2018-08-10T07:36:05.027Z,2.35
2018-08-10T07:41:08.257Z,2.72
2018-08-10T07:46:11.531Z,2.05
2018-08-10T07:51:15.848Z,3.02
2018-08-10T07:56:19.122Z,1.90
2018-08-10T08:01:22.363Z,2.00
2018-08-10T08:06:25.654Z,1.85
2018-08-10T08:11:28.868Z,2.10
2018-08-10T08:16:32.200Z,2.20
2018-08-10T08:21:35.583Z,1.95
2018-08-10T08:26:38.809Z,2.70
2018-08-10T08:31:42.026Z,2.30
2018-08-10T08:36:45.243Z,2.42
2018-08-10T08:41:48.499Z,2.37
2018-08-10T08:46:51.731Z,2.40
2018-08-10T08:51:54.979Z,2.40
2018-08-10T08:56:58.162Z,2.70
2018-08-10T09:02:01.567Z,2.63
2018-08-10T09:07:04.800Z,2.37
2018-08-10T09:12:08.008Z,2.37
2018-08-10T09:17:11.634Z,2.13
2018-08-10T09:22:14.782Z,1.80
2018-08-10T09:27:18.023Z,2.00
2018-08-10T09:32:21.230Z,2.05
2018-08-10T09:37:24.467Z,2.10
2018-08-10T09:42:27.766Z,1.60
2018-08-10T09:47:30.983Z,2.20
2018-08-10T09:52:34.215Z,2.02
2018-08-10T09:57:37.415Z,2.60
2018-08-10T10:02:44.849Z,2.30
2018-08-10T10:07:48.038Z,2.20
2018-08-10T10:12:51.280Z,1.80
2018-08-10T10:17:54.700Z,1.82
2018-08-10T10:22:57.873Z,1.60
2018-08-10T10:28:01.067Z,1.80
2018-08-10T10:33:04.511Z,1.67
2018-08-10T10:38:07.694Z,2.00
2018-08-10T10:43:10.875Z,1.90
2018-08-10T10:48:14.163Z,1.90
2018-08-10T10:53:17.382Z,1.60
2018-08-10T10:58:20.648Z,1.75
2018-08-10T11:03:23.943Z,2.00
2018-08-10T11:08:27.132Z,1.60
2018-08-10T11:13:30.338Z,1.90
2018-08-10T11:18:33.551Z,1.40
2018-08-10T11:23:37.102Z,1.40
2018-08-10T11:28:40.832Z,1.32
2018-08-10T11:33:44.035Z,1.20
2018-08-10T11:38:47.428Z,1.27
2018-08-10T11:43:50.642Z,1.40
2018-08-10T11:48:57.039Z,1.35
2018-08-10T11:54:00.242Z,1.70
2018-08-10T11:59:03.447Z,1.30
2018-08-10T12:04:06.637Z,1.43
2018-08-10T12:09:11.361Z,1.37
2018-08-10T12:14:14.571Z,1.00
2018-08-10T12:19:17.770Z,2.20
2018-08-10T12:24:21.088Z,1.80
2018-08-10T12:29:24.272Z,1.20
2018-08-10T12:34:27.470Z,1.55
2018-08-10T12:39:30.715Z,1.40
2018-08-10T12:44:34.033Z,1.30
2018-08-10T12:49:37.288Z,1.57
2018-08-10T12:54:40.487Z,2.17
2018-08-10T12:59:44.741Z,1.30
2018-08-10T13:04:47.907Z,1.80
2018-08-10T13:09:51.193Z,1.57
2018-08-10T13:14:54.359Z,1.43
2018-08-10T13:19:57.554Z,1.33
2018-08-10T13:25:00.779Z,1.40
2018-08-10T13:30:05.147Z,1.90
2018-08-10T13:35:08.400Z,1.17
2018-08-10T13:40:11.631Z,1.45
2018-08-10T13:45:15.726Z,1.02
2018-08-10T13:50:18.930Z,1.22
2018-08-10T13:55:22.136Z,0.82
2018-08-10T14:00:26.017Z,0.90
2018-08-10T14:05:29.215Z,0.97
2018-08-10T14:10:33.023Z,1.10
2018-08-10T14:15:36.215Z,1.67
2018-08-10T14:20:39.402Z,1.00
2018-08-10T14:25:42.586Z,1.35
2018-08-10T14:30:45.791Z,1.50
2018-08-10T14:35:49.011Z,1.53
2018-08-10T14:40:52.578Z,1.40
2018-08-10T14:45:56.091Z,2.20
2018-08-10T14:50:59.329Z,1.50
2018-08-10T14:56:02.554Z,2.00
2018-08-10T15:01:05.942Z,1.70
2018-08-10T15:06:09.145Z,1.40
2018-08-10T15:11:12.335Z,1.30
2018-08-10T15:16:15.585Z,1.35
2018-08-10T15:21:18.827Z,1.20
2018-08-10T15:26:22.162Z,2.02
2018-08-10T15:31:25.479Z,2.55
2018-08-10T15:36:28.777Z,1.42
2018-08-10T15:41:32.059Z,1.40
2018-08-10T15:46:35.294Z,1.33
2018-08-10T15:51:38.552Z,2.02
2018-08-10T15:56:42.101Z,1.40
2018-08-10T16:01:45.322Z,1.20
2018-08-10T16:06:48.520Z,1.47
2018-08-10T16:11:51.744Z,1.83
2018-08-10T16:16:54.932Z,1.50
2018-08-10T16:27:08.239Z,1.60
2018-08-10T16:32:11.446Z,1.20
2018-08-10T16:37:14.654Z,1.20
2018-08-10T16:42:18.202Z,0.98
2018-08-10T16:47:21.422Z,1.33
2018-08-10T16:52:24.608Z,1.77
2018-08-10T16:57:27.819Z,2.30
2018-08-10T17:02:31.060Z,1.40
2018-08-10T17:07:34.298Z,1.30
2018-08-10T17:12:39.239Z,3.10
2018-08-10T17:17:43.501Z,1.17
2018-08-10T17:22:46.772Z,1.05
2018-08-10T17:27:49.987Z,1.50
2018-08-10T17:32:53.191Z,1.35
2018-08-10T17:37:56.383Z,0.95
2018-08-10T17:42:59.563Z,1.53
2018-08-10T17:48:02.780Z,1.07
2018-08-10T17:53:06.004Z,0.98
2018-08-10T17:58:09.199Z,1.10
2018-08-10T18:03:12.403Z,1.50
2018-08-10T18:08:15.605Z,1.32
2018-08-10T18:13:18.895Z,1.53
2018-08-10T18:18:22.135Z,1.52
2018-08-10T18:23:25.353Z,1.95
2018-08-10T18:28:28.555Z,1.30
2018-08-10T18:33:31.776Z,1.20
2018-08-10T18:38:35.044Z,2.80
2018-08-10T18:43:38.258Z,6.08
2018-08-10T18:48:41.482Z,2.00
2018-08-10T18:53:44.696Z,1.00
2018-08-10T18:58:47.903Z,1.15
2018-08-10T19:03:51.097Z,1.60
2018-08-10T19:08:54.295Z,1.20
2018-08-10T19:13:57.495Z,2.40
2018-08-10T22:04:34.304Z,1.20
2018-08-10T22:09:37.531Z,1.00
2018-08-10T22:14:46.283Z,1.00
2018-08-10T22:19:49.506Z,1.00
2018-08-10T22:24:52.698Z,1.00
2018-08-10T22:29:55.895Z,1.65
2018-08-10T22:34:59.679Z,1.02
2018-08-10T22:40:02.892Z,1.00
2018-08-10T22:45:06.335Z,1.10
2018-08-10T22:50:09.782Z,1.00
2018-08-10T22:55:13.008Z,1.20
2018-08-10T23:00:16.238Z,1.17
2018-08-10T23:05:19.458Z,1.20
2018-08-10T23:10:22.686Z,1.10
2018-08-10T23:15:25.935Z,1.10
2018-08-10T23:20:29.188Z,1.47
2018-08-10T23:25:32.334Z,1.20
2018-08-10T23:30:35.553Z,1.10
2018-08-10T23:35:38.953Z,1.50
2018-08-10T23:40:42.175Z,1.50
2018-08-10T23:45:45.387Z,1.80
2018-08-10T23:50:48.588Z,1.87
2018-08-10T23:55:52.895Z,1.62
